Aurora, Kentucky
Current Conditions -  °F | °C
As of 2:35 PM on Saturday 20 Dec 2014 (Local Time) from KCEY Reporting Station
Broken Clouds Broken Clouds  
Wind Chill:   Ceiling: 6000
Heat Index:   Visibility: 10mi
Dew Point: -2°   Wind: 3mph
Humidity: 61%   Direction: 130°SE
Pressure: 30.24"   Gusts: NA
Location:  36.7761°N, 88.2528°W
Report Text: KCEY 202035Z AUTO 13003KT 10SM BKN060 05/M02 A3024 RMK AO1
Loading
Personal Weather Stations






























Interactive Weather Map New forecast layout! Learn more

10-Day Weather Forecast

Advertisements
Track Severe Weather on mobile